sensor_id;sensor_type;location;lat;lon;timestamp;temperature;humidity
53274;DHT22;39163;52.696;6.758;2024-03-02T00:01:19;6.80;99.90
53274;DHT22;39163;52.696;6.758;2024-03-02T00:03:46;6.90;99.90
53274;DHT22;39163;52.696;6.758;2024-03-02T00:06:13;7.00;99.90
53274;DHT22;39163;52.696;6.758;2024-03-02T00:08:40;7.00;99.90
53274;DHT22;39163;52.696;6.758;2024-03-02T00:11:07;6.90;99.90
53274;DHT22;39163;52.696;6.758;2024-03-02T00:13:36;7.00;99.90
53274;DHT22;39163;52.696;6.758;2024-03-02T00:16:05;7.00;99.90
53274;DHT22;39163;52.696;6.758;2024-03-02T00:18:35;7.00;99.90
53274;DHT22;39163;52.696;6.758;2024-03-02T00:21:03;7.00;99.90
53274;DHT22;39163;52.696;6.758;2024-03-02T00:23:35;7.00;99.90
53274;DHT22;39163;52.696;6.758;2024-03-02T00:26:02;7.00;99.90
53274;DHT22;39163;52.696;6.758;2024-03-02T00:28:31;7.00;99.90
53274;DHT22;39163;52.696;6.758;2024-03-02T00:31:01;7.00;99.90
53274;DHT22;39163;52.696;6.758;2024-03-02T00:33:32;7.10;99.90
53274;DHT22;39163;52.696;6.758;2024-03-02T00:36:01;7.10;99.90
53274;DHT22;39163;52.696;6.758;2024-03-02T00:38:29;7.10;99.90
53274;DHT22;39163;52.696;6.758;2024-03-02T00:40:58;7.20;99.90
53274;DHT22;39163;52.696;6.758;2024-03-02T00:43:43;7.20;99.90
53274;DHT22;39163;52.696;6.758;2024-03-02T00:46:12;7.20;99.90
53274;DHT22;39163;52.696;6.758;2024-03-02T00:48:48;7.30;99.90
53274;DHT22;39163;52.696;6.758;2024-03-02T00:51:19;7.30;99.90
53274;DHT22;39163;52.696;6.758;2024-03-02T00:53:45;7.40;99.90
53274;DHT22;39163;52.696;6.758;2024-03-02T00:56:13;7.40;99.90
53274;DHT22;39163;52.696;6.758;2024-03-02T00:58:40;7.50;99.90
53274;DHT22;39163;52.696;6.758;2024-03-02T01:01:07;7.50;99.90
53274;DHT22;39163;52.696;6.758;2024-03-02T01:03:35;7.50;99.90
53274;DHT22;39163;52.696;6.758;2024-03-02T01:06:03;7.60;99.90
53274;DHT22;39163;52.696;6.758;2024-03-02T01:08:32;7.60;99.90
53274;DHT22;39163;52.696;6.758;2024-03-02T01:10:59;7.60;99.90
53274;DHT22;39163;52.696;6.758;2024-03-02T01:13:26;7.60;99.90
53274;DHT22;39163;52.696;6.758;2024-03-02T01:15:53;7.60;99.90
53274;DHT22;39163;52.696;6.758;2024-03-02T01:18:20;7.60;99.90
53274;DHT22;39163;52.696;6.758;2024-03-02T01:20:47;7.60;99.90
53274;DHT22;39163;52.696;6.758;2024-03-02T01:23:17;7.70;99.90
53274;DHT22;39163;52.696;6.758;2024-03-02T01:25:46;7.70;99.90
53274;DHT22;39163;52.696;6.758;2024-03-02T01:28:13;7.70;99.90
53274;DHT22;39163;52.696;6.758;2024-03-02T01:30:40;7.80;99.90
53274;DHT22;39163;52.696;6.758;2024-03-02T01:33:07;7.70;99.90
53274;DHT22;39163;52.696;6.758;2024-03-02T01:35:35;7.70;99.90
53274;DHT22;39163;52.696;6.758;2024-03-02T01:38:02;7.80;99.90
53274;DHT22;39163;52.696;6.758;2024-03-02T01:40:32;7.80;99.90
53274;DHT22;39163;52.696;6.758;2024-03-02T01:43:00;7.70;99.90
53274;DHT22;39163;52.696;6.758;2024-03-02T01:45:28;7.70;99.90
53274;DHT22;39163;52.696;6.758;2024-03-02T01:47:55;7.60;99.90
53274;DHT22;39163;52.696;6.758;2024-03-02T01:50:26;7.60;99.90
53274;DHT22;39163;52.696;6.758;2024-03-02T01:52:55;7.60;99.90
53274;DHT22;39163;52.696;6.758;2024-03-02T01:55:22;7.60;99.90
53274;DHT22;39163;52.696;6.758;2024-03-02T01:57:49;7.60;99.90
53274;DHT22;39163;52.696;6.758;2024-03-02T02:00:19;7.60;99.90
53274;DHT22;39163;52.696;6.758;2024-03-02T02:02:47;7.60;99.90
53274;DHT22;39163;52.696;6.758;2024-03-02T02:05:15;7.60;99.90
53274;DHT22;39163;52.696;6.758;2024-03-02T02:07:42;7.60;99.90
53274;DHT22;39163;52.696;6.758;2024-03-02T02:10:10;7.60;99.90
53274;DHT22;39163;52.696;6.758;2024-03-02T02:12:38;7.70;99.90
53274;DHT22;39163;52.696;6.758;2024-03-02T02:15:26;7.70;99.90
53274;DHT22;39163;52.696;6.758;2024-03-02T02:17:53;7.80;99.90
53274;DHT22;39163;52.696;6.758;2024-03-02T02:20:20;7.80;99.90
53274;DHT22;39163;52.696;6.758;2024-03-02T02:22:56;7.80;99.90
53274;DHT22;39163;52.696;6.758;2024-03-02T02:25:24;7.70;99.90
53274;DHT22;39163;52.696;6.758;2024-03-02T02:27:51;7.80;99.90
53274;DHT22;39163;52.696;6.758;2024-03-02T02:30:23;7.70;99.90
53274;DHT22;39163;52.696;6.758;2024-03-02T02:32:50;7.60;99.90
53274;DHT22;39163;52.696;6.758;2024-03-02T02:35:17;7.50;99.90
53274;DHT22;39163;52.696;6.758;2024-03-02T02:37:44;7.60;99.90
53274;DHT22;39163;52.696;6.758;2024-03-02T02:40:14;7.60;99.90
53274;DHT22;39163;52.696;6.758;2024-03-02T02:42:41;7.60;99.90
53274;DHT22;39163;52.696;6.758;2024-03-02T02:45:08;7.60;99.90
53274;DHT22;39163;52.696;6.758;2024-03-02T02:47:36;7.70;99.90
53274;DHT22;39163;52.696;6.758;2024-03-02T02:50:06;7.80;99.90
53274;DHT22;39163;52.696;6.758;2024-03-02T02:52:35;7.80;99.90
53274;DHT22;39163;52.696;6.758;2024-03-02T02:55:04;7.90;99.90
53274;DHT22;39163;52.696;6.758;2024-03-02T02:57:33;7.90;99.90
53274;DHT22;39163;52.696;6.758;2024-03-02T03:00:04;7.90;99.90
53274;DHT22;39163;52.696;6.758;2024-03-02T03:02:36;8.00;99.90
53274;DHT22;39163;52.696;6.758;2024-03-02T03:05:04;8.00;99.90
53274;DHT22;39163;52.696;6.758;2024-03-02T03:07:31;8.00;99.90
53274;DHT22;39163;52.696;6.758;2024-03-02T03:09:58;8.00;99.90
53274;DHT22;39163;52.696;6.758;2024-03-02T03:12:26;7.90;99.90
53274;DHT22;39163;52.696;6.758;2024-03-02T03:14:54;7.90;99.90
53274;DHT22;39163;52.696;6.758;2024-03-02T03:17:21;7.90;99.90
53274;DHT22;39163;52.696;6.758;2024-03-02T03:19:48;7.90;99.90
53274;DHT22;39163;52.696;6.758;2024-03-02T03:22:15;7.90;99.90
53274;DHT22;39163;52.696;6.758;2024-03-02T03:24:42;7.80;99.90
53274;DHT22;39163;52.696;6.758;2024-03-02T03:27:09;7.80;99.90
53274;DHT22;39163;52.696;6.758;2024-03-02T03:29:37;7.70;99.90
53274;DHT22;39163;52.696;6.758;2024-03-02T03:32:06;7.70;99.90
53274;DHT22;39163;52.696;6.758;2024-03-02T03:34:33;7.70;99.90
53274;DHT22;39163;52.696;6.758;2024-03-02T03:37:00;7.70;99.90
53274;DHT22;39163;52.696;6.758;2024-03-02T03:39:27;7.60;99.90
53274;DHT22;39163;52.696;6.758;2024-03-02T03:41:54;7.60;99.90
53274;DHT22;39163;52.696;6.758;2024-03-02T03:44:22;7.60;99.90
53274;DHT22;39163;52.696;6.758;2024-03-02T03:46:49;7.60;99.90
53274;DHT22;39163;52.696;6.758;2024-03-02T03:49:18;7.60;99.90
53274;DHT22;39163;52.696;6.758;2024-03-02T03:51:45;7.70;99.90
53274;DHT22;39163;52.696;6.758;2024-03-02T03:54:12;7.70;99.90
53274;DHT22;39163;52.696;6.758;2024-03-02T03:56:38;7.70;99.90
53274;DHT22;39163;52.696;6.758;2024-03-02T03:59:06;7.70;99.90
53274;DHT22;39163;52.696;6.758;2024-03-02T04:01:32;7.70;99.90
53274;DHT22;39163;52.696;6.758;2024-03-02T04:04:00;7.80;99.90
53274;DHT22;39163;52.696;6.758;2024-03-02T04:06:29;7.80;99.90
53274;DHT22;39163;52.696;6.758;2024-03-02T04:08:56;7.90;99.90
53274;DHT22;39163;52.696;6.758;2024-03-02T04:11:23;7.90;99.90
53274;DHT22;39163;52.696;6.758;2024-03-02T04:13:50;7.90;99.90
53274;DHT22;39163;52.696;6.758;2024-03-02T04:16:16;7.90;99.90
53274;DHT22;39163;52.696;6.758;2024-03-02T04:18:43;7.90;99.90
53274;DHT22;39163;52.696;6.758;2024-03-02T04:21:10;7.90;99.90
53274;DHT22;39163;52.696;6.758;2024-03-02T04:23:39;7.90;99.90
53274;DHT22;39163;52.696;6.758;2024-03-02T04:26:06;8.00;99.90
53274;DHT22;39163;52.696;6.758;2024-03-02T04:28:33;7.90;99.90
53274;DHT22;39163;52.696;6.758;2024-03-02T04:31:00;7.90;99.90
53274;DHT22;39163;52.696;6.758;2024-03-02T04:33:27;7.80;99.90
53274;DHT22;39163;52.696;6.758;2024-03-02T04:35:54;7.80;99.90
53274;DHT22;39163;52.696;6.758;2024-03-02T04:38:21;7.70;99.90
53274;DHT22;39163;52.696;6.758;2024-03-02T04:40:49;7.60;99.90
53274;DHT22;39163;52.696;6.758;2024-03-02T04:43:16;7.60;99.90
53274;DHT22;39163;52.696;6.758;2024-03-02T04:45:45;7.60;99.90
53274;DHT22;39163;52.696;6.758;2024-03-02T04:48:12;7.60;99.90
53274;DHT22;39163;52.696;6.758;2024-03-02T04:50:39;7.50;99.90
53274;DHT22;39163;52.696;6.758;2024-03-02T04:53:06;7.50;99.90
53274;DHT22;39163;52.696;6.758;2024-03-02T04:55:33;7.50;99.90
53274;DHT22;39163;52.696;6.758;2024-03-02T04:58:30;7.50;99.90
53274;DHT22;39163;52.696;6.758;2024-03-02T05:00:57;7.50;99.90
53274;DHT22;39163;52.696;6.758;2024-03-02T05:03:24;7.40;99.90
53274;DHT22;39163;52.696;6.758;2024-03-02T05:05:51;7.40;99.90
53274;DHT22;39163;52.696;6.758;2024-03-02T05:08:18;7.40;99.90
53274;DHT22;39163;52.696;6.758;2024-03-02T05:10:45;7.40;99.90
53274;DHT22;39163;52.696;6.758;2024-03-02T05:13:12;7.40;99.90
53274;DHT22;39163;52.696;6.758;2024-03-02T05:15:39;7.40;99.90
53274;DHT22;39163;52.696;6.758;2024-03-02T05:18:06;7.40;99.90
53274;DHT22;39163;52.696;6.758;2024-03-02T05:20:33;7.30;99.90
53274;DHT22;39163;52.696;6.758;2024-03-02T05:23:00;7.30;99.90
53274;DHT22;39163;52.696;6.758;2024-03-02T05:25:27;7.30;99.90
53274;DHT22;39163;52.696;6.758;2024-03-02T05:27:54;7.20;99.90
53274;DHT22;39163;52.696;6.758;2024-03-02T05:30:21;7.10;99.90
53274;DHT22;39163;52.696;6.758;2024-03-02T05:32:49;7.10;99.90
53274;DHT22;39163;52.696;6.758;2024-03-02T05:35:16;7.00;99.90
53274;DHT22;39163;52.696;6.758;2024-03-02T05:37:44;7.00;99.90
53274;DHT22;39163;52.696;6.758;2024-03-02T05:40:11;6.90;99.90
53274;DHT22;39163;52.696;6.758;2024-03-02T05:42:38;7.00;99.90
53274;DHT22;39163;52.696;6.758;2024-03-02T05:45:07;7.00;99.90
53274;DHT22;39163;52.696;6.758;2024-03-02T05:47:34;6.90;99.90
53274;DHT22;39163;52.696;6.758;2024-03-02T05:50:04;6.90;99.90
53274;DHT22;39163;52.696;6.758;2024-03-02T05:52:32;6.80;99.90
53274;DHT22;39163;52.696;6.758;2024-03-02T05:54:59;6.80;99.90
53274;DHT22;39163;52.696;6.758;2024-03-02T05:57:26;6.80;99.90
53274;DHT22;39163;52.696;6.758;2024-03-02T06:00:11;6.70;99.90
53274;DHT22;39163;52.696;6.758;2024-03-02T06:02:39;6.70;99.90
53274;DHT22;39163;52.696;6.758;2024-03-02T06:05:07;6.70;99.90
53274;DHT22;39163;52.696;6.758;2024-03-02T06:07:34;6.60;99.90
53274;DHT22;39163;52.696;6.758;2024-03-02T06:10:01;6.60;99.90
53274;DHT22;39163;52.696;6.758;2024-03-02T06:12:30;6.50;99.90
53274;DHT22;39163;52.696;6.758;2024-03-02T06:14:57;6.50;99.90
53274;DHT22;39163;52.696;6.758;2024-03-02T06:17:24;6.50;99.90
53274;DHT22;39163;52.696;6.758;2024-03-02T06:19:51;6.50;99.90
53274;DHT22;39163;52.696;6.758;2024-03-02T06:22:20;6.50;99.90
53274;DHT22;39163;52.696;6.758;2024-03-02T06:24:48;6.50;99.90
53274;DHT22;39163;52.696;6.758;2024-03-02T06:27:15;6.50;99.90
53274;DHT22;39163;52.696;6.758;2024-03-02T06:29:42;6.60;99.90
53274;DHT22;39163;52.696;6.758;2024-03-02T06:32:09;6.70;99.90
53274;DHT22;39163;52.696;6.758;2024-03-02T06:34:36;6.70;99.90
53274;DHT22;39163;52.696;6.758;2024-03-02T06:37:04;6.70;99.90
53274;DHT22;39163;52.696;6.758;2024-03-02T06:39:32;6.70;99.90
53274;DHT22;39163;52.696;6.758;2024-03-02T06:41:59;6.80;99.90
53274;DHT22;39163;52.696;6.758;2024-03-02T06:44:27;6.80;99.90
53274;DHT22;39163;52.696;6.758;2024-03-02T06:46:54;6.80;99.90
53274;DHT22;39163;52.696;6.758;2024-03-02T06:49:21;6.80;99.90
53274;DHT22;39163;52.696;6.758;2024-03-02T06:51:48;6.90;99.90
53274;DHT22;39163;52.696;6.758;2024-03-02T06:54:15;6.90;99.90
53274;DHT22;39163;52.696;6.758;2024-03-02T06:56:43;6.90;99.90
53274;DHT22;39163;52.696;6.758;2024-03-02T06:59:10;6.80;99.90
53274;DHT22;39163;52.696;6.758;2024-03-02T07:01:37;6.80;99.90
53274;DHT22;39163;52.696;6.758;2024-03-02T07:04:04;6.70;99.90
53274;DHT22;39163;52.696;6.758;2024-03-02T07:06:32;6.60;99.90
53274;DHT22;39163;52.696;6.758;2024-03-02T07:08:58;6.50;99.90
53274;DHT22;39163;52.696;6.758;2024-03-02T07:11:25;6.50;99.90
53274;DHT22;39163;52.696;6.758;2024-03-02T07:13:54;6.40;99.90
53274;DHT22;39163;52.696;6.758;2024-03-02T07:16:21;6.30;99.90
53274;DHT22;39163;52.696;6.758;2024-03-02T07:18:55;6.20;99.90
53274;DHT22;39163;52.696;6.758;2024-03-02T07:21:22;6.10;99.90
53274;DHT22;39163;52.696;6.758;2024-03-02T07:23:49;6.00;99.90
53274;DHT22;39163;52.696;6.758;2024-03-02T07:26:17;6.00;99.90
53274;DHT22;39163;52.696;6.758;2024-03-02T07:28:45;6.00;99.90
53274;DHT22;39163;52.696;6.758;2024-03-02T07:31:14;6.00;99.90
53274;DHT22;39163;52.696;6.758;2024-03-02T07:33:44;6.10;99.90
53274;DHT22;39163;52.696;6.758;2024-03-02T07:36:11;6.20;99.90
53274;DHT22;39163;52.696;6.758;2024-03-02T07:38:38;6.20;99.90
53274;DHT22;39163;52.696;6.758;2024-03-02T07:41:06;6.30;99.90
53274;DHT22;39163;52.696;6.758;2024-03-02T07:43:33;6.40;99.90
53274;DHT22;39163;52.696;6.758;2024-03-02T07:46:00;6.50;99.90
53274;DHT22;39163;52.696;6.758;2024-03-02T07:48:30;6.60;99.90
53274;DHT22;39163;52.696;6.758;2024-03-02T07:50:57;6.60;99.90
53274;DHT22;39163;52.696;6.758;2024-03-02T07:53:24;6.70;99.90
53274;DHT22;39163;52.696;6.758;2024-03-02T07:55:51;6.80;99.90
53274;DHT22;39163;52.696;6.758;2024-03-02T07:58:18;6.90;99.90
53274;DHT22;39163;52.696;6.758;2024-03-02T08:00:45;7.00;99.90
53274;DHT22;39163;52.696;6.758;2024-03-02T08:03:13;7.00;99.90
53274;DHT22;39163;52.696;6.758;2024-03-02T08:05:41;7.10;99.90
53274;DHT22;39163;52.696;6.758;2024-03-02T08:08:08;7.20;99.90
53274;DHT22;39163;52.696;6.758;2024-03-02T08:10:35;7.30;99.90
53274;DHT22;39163;52.696;6.758;2024-03-02T08:13:02;7.40;99.90
53274;DHT22;39163;52.696;6.758;2024-03-02T08:15:30;7.40;99.90
53274;DHT22;39163;52.696;6.758;2024-03-02T08:17:57;7.40;99.90
53274;DHT22;39163;52.696;6.758;2024-03-02T08:20:24;7.40;99.90
53274;DHT22;39163;52.696;6.758;2024-03-02T08:22:52;7.40;99.90
53274;DHT22;39163;52.696;6.758;2024-03-02T08:25:21;7.50;99.90
53274;DHT22;39163;52.696;6.758;2024-03-02T08:27:48;7.80;99.90
53274;DHT22;39163;52.696;6.758;2024-03-02T08:30:15;8.00;99.90
53274;DHT22;39163;52.696;6.758;2024-03-02T08:32:43;8.20;99.90
53274;DHT22;39163;52.696;6.758;2024-03-02T08:35:10;8.40;99.90
53274;DHT22;39163;52.696;6.758;2024-03-02T08:37:39;8.60;99.90
53274;DHT22;39163;52.696;6.758;2024-03-02T08:40:09;8.80;99.90
53274;DHT22;39163;52.696;6.758;2024-03-02T08:42:36;9.00;99.90
53274;DHT22;39163;52.696;6.758;2024-03-02T08:45:05;9.20;99.90
53274;DHT22;39163;52.696;6.758;2024-03-02T08:47:33;9.30;99.90
53274;DHT22;39163;52.696;6.758;2024-03-02T08:50:02;9.40;99.90
53274;DHT22;39163;52.696;6.758;2024-03-02T08:52:30;9.40;99.90
53274;DHT22;39163;52.696;6.758;2024-03-02T08:54:57;9.30;99.90
53274;DHT22;39163;52.696;6.758;2024-03-02T08:57:25;9.20;99.90
53274;DHT22;39163;52.696;6.758;2024-03-02T08:59:52;9.10;99.90
53274;DHT22;39163;52.696;6.758;2024-03-02T09:02:20;9.10;99.90
53274;DHT22;39163;52.696;6.758;2024-03-02T09:04:46;9.00;99.90
53274;DHT22;39163;52.696;6.758;2024-03-02T09:07:14;9.10;99.90
53274;DHT22;39163;52.696;6.758;2024-03-02T09:09:41;9.10;99.90
53274;DHT22;39163;52.696;6.758;2024-03-02T09:12:08;9.20;99.90
53274;DHT22;39163;52.696;6.758;2024-03-02T09:14:36;9.30;99.90
53274;DHT22;39163;52.696;6.758;2024-03-02T09:17:04;9.50;99.90
53274;DHT22;39163;52.696;6.758;2024-03-02T09:19:31;9.70;99.90
53274;DHT22;39163;52.696;6.758;2024-03-02T09:21:58;9.80;99.90
53274;DHT22;39163;52.696;6.758;2024-03-02T09:24:25;9.80;99.90
53274;DHT22;39163;52.696;6.758;2024-03-02T09:26:52;9.80;99.90
53274;DHT22;39163;52.696;6.758;2024-03-02T09:29:19;9.70;99.90
53274;DHT22;39163;52.696;6.758;2024-03-02T09:31:48;9.70;99.90
53274;DHT22;39163;52.696;6.758;2024-03-02T09:34:16;9.60;99.90
53274;DHT22;39163;52.696;6.758;2024-03-02T09:36:43;9.60;99.90
53274;DHT22;39163;52.696;6.758;2024-03-02T09:39:10;9.60;99.90
53274;DHT22;39163;52.696;6.758;2024-03-02T09:41:37;9.50;99.90
53274;DHT22;39163;52.696;6.758;2024-03-02T09:44:05;9.50;99.90
53274;DHT22;39163;52.696;6.758;2024-03-02T09:46:32;9.60;99.90
53274;DHT22;39163;52.696;6.758;2024-03-02T09:49:02;9.60;99.90
53274;DHT22;39163;52.696;6.758;2024-03-02T09:51:29;9.70;99.90
53274;DHT22;39163;52.696;6.758;2024-03-02T09:53:57;9.80;99.90
53274;DHT22;39163;52.696;6.758;2024-03-02T09:56:24;9.80;99.90
53274;DHT22;39163;52.696;6.758;2024-03-02T09:58:50;9.80;99.90
53274;DHT22;39163;52.696;6.758;2024-03-02T10:01:17;10.00;99.90
53274;DHT22;39163;52.696;6.758;2024-03-02T10:03:45;10.20;99.90
53274;DHT22;39163;52.696;6.758;2024-03-02T10:06:21;10.30;99.90
53274;DHT22;39163;52.696;6.758;2024-03-02T10:08:48;10.30;99.90
53274;DHT22;39163;52.696;6.758;2024-03-02T10:11:29;10.40;99.90
53274;DHT22;39163;52.696;6.758;2024-03-02T10:14:07;10.30;99.90
53274;DHT22;39163;52.696;6.758;2024-03-02T10:16:38;10.30;99.90
53274;DHT22;39163;52.696;6.758;2024-03-02T10:19:19;10.20;99.90
53274;DHT22;39163;52.696;6.758;2024-03-02T10:21:48;10.20;99.90
53274;DHT22;39163;52.696;6.758;2024-03-02T10:24:16;10.20;99.90
53274;DHT22;39163;52.696;6.758;2024-03-02T10:26:43;10.30;99.90
53274;DHT22;39163;52.696;6.758;2024-03-02T10:29:10;10.60;99.90
53274;DHT22;39163;52.696;6.758;2024-03-02T10:31:38;10.90;99.90
53274;DHT22;39163;52.696;6.758;2024-03-02T10:34:06;11.30;99.90
53274;DHT22;39163;52.696;6.758;2024-03-02T10:36:33;11.50;99.90
53274;DHT22;39163;52.696;6.758;2024-03-02T10:39:03;11.60;99.90
53274;DHT22;39163;52.696;6.758;2024-03-02T10:41:32;11.60;99.90
53274;DHT22;39163;52.696;6.758;2024-03-02T10:44:02;11.70;99.90
53274;DHT22;39163;52.696;6.758;2024-03-02T10:46:32;11.80;99.90
53274;DHT22;39163;52.696;6.758;2024-03-02T10:49:00;12.00;99.90
53274;DHT22;39163;52.696;6.758;2024-03-02T10:51:29;12.20;99.90
53274;DHT22;39163;52.696;6.758;2024-03-02T10:53:57;12.50;99.90
53274;DHT22;39163;52.696;6.758;2024-03-02T10:56:29;12.70;99.90
53274;DHT22;39163;52.696;6.758;2024-03-02T10:59:02;12.70;99.90
53274;DHT22;39163;52.696;6.758;2024-03-02T11:01:31;12.90;99.90
53274;DHT22;39163;52.696;6.758;2024-03-02T11:03:59;13.10;99.90
53274;DHT22;39163;52.696;6.758;2024-03-02T11:06:29;13.40;99.90
53274;DHT22;39163;52.696;6.758;2024-03-02T11:09:00;13.40;99.90
53274;DHT22;39163;52.696;6.758;2024-03-02T11:11:37;13.10;99.90
53274;DHT22;39163;52.696;6.758;2024-03-02T11:14:10;13.20;99.90
53274;DHT22;39163;52.696;6.758;2024-03-02T11:16:38;13.60;99.90
53274;DHT22;39163;52.696;6.758;2024-03-02T11:19:15;13.80;99.90
53274;DHT22;39163;52.696;6.758;2024-03-02T11:21:43;13.80;99.90
53274;DHT22;39163;52.696;6.758;2024-03-02T11:24:29;13.90;99.90
53274;DHT22;39163;52.696;6.758;2024-03-02T11:27:01;14.10;99.90
53274;DHT22;39163;52.696;6.758;2024-03-02T11:29:46;14.10;99.90
53274;DHT22;39163;52.696;6.758;2024-03-02T11:32:16;14.20;99.90
53274;DHT22;39163;52.696;6.758;2024-03-02T11:34:45;14.10;99.90
53274;DHT22;39163;52.696;6.758;2024-03-02T11:37:13;13.90;99.90
53274;DHT22;39163;52.696;6.758;2024-03-02T11:39:41;14.10;99.90
53274;DHT22;39163;52.696;6.758;2024-03-02T11:42:11;14.10;99.90
53274;DHT22;39163;52.696;6.758;2024-03-02T11:44:42;14.00;99.90
53274;DHT22;39163;52.696;6.758;2024-03-02T11:47:12;14.30;99.90
53274;DHT22;39163;52.696;6.758;2024-03-02T11:49:41;14.50;99.90
53274;DHT22;39163;52.696;6.758;2024-03-02T11:52:10;14.60;99.70
53274;DHT22;39163;52.696;6.758;2024-03-02T11:54:38;14.50;99.50
53274;DHT22;39163;52.696;6.758;2024-03-02T11:57:06;14.40;99.60
53274;DHT22;39163;52.696;6.758;2024-03-02T11:59:35;14.10;99.90
53274;DHT22;39163;52.696;6.758;2024-03-02T12:02:02;14.40;99.90
53274;DHT22;39163;52.696;6.758;2024-03-02T12:04:30;14.60;99.90
53274;DHT22;39163;52.696;6.758;2024-03-02T12:06:59;14.70;99.40
53274;DHT22;39163;52.696;6.758;2024-03-02T12:09:26;14.60;99.90
53274;DHT22;39163;52.696;6.758;2024-03-02T12:12:02;14.60;99.90
53274;DHT22;39163;52.696;6.758;2024-03-02T12:14:31;14.40;99.70
53274;DHT22;39163;52.696;6.758;2024-03-02T12:16:59;14.40;99.70
53274;DHT22;39163;52.696;6.758;2024-03-02T12:19:26;14.40;99.00
53274;DHT22;39163;52.696;6.758;2024-03-02T12:21:53;14.40;99.40
53274;DHT22;39163;52.696;6.758;2024-03-02T12:24:21;14.40;99.70
53274;DHT22;39163;52.696;6.758;2024-03-02T12:26:49;14.50;99.90
53274;DHT22;39163;52.696;6.758;2024-03-02T12:29:18;14.60;99.90
53274;DHT22;39163;52.696;6.758;2024-03-02T12:31:47;14.80;99.90
53274;DHT22;39163;52.696;6.758;2024-03-02T12:34:17;14.80;98.50
53274;DHT22;39163;52.696;6.758;2024-03-02T12:36:46;14.70;99.50
53274;DHT22;39163;52.696;6.758;2024-03-02T12:39:15;14.60;99.20
53274;DHT22;39163;52.696;6.758;2024-03-02T12:41:43;14.70;99.30
53274;DHT22;39163;52.696;6.758;2024-03-02T12:44:10;14.80;99.90
53274;DHT22;39163;52.696;6.758;2024-03-02T12:46:38;14.70;98.50
53274;DHT22;39163;52.696;6.758;2024-03-02T12:49:08;14.80;99.50
53274;DHT22;39163;52.696;6.758;2024-03-02T12:51:38;14.90;98.90
53274;DHT22;39163;52.696;6.758;2024-03-02T12:54:06;14.70;99.10
53274;DHT22;39163;52.696;6.758;2024-03-02T12:56:33;14.70;99.60
53274;DHT22;39163;52.696;6.758;2024-03-02T12:59:01;14.80;99.90
53274;DHT22;39163;52.696;6.758;2024-03-02T13:01:28;15.00;99.90
53274;DHT22;39163;52.696;6.758;2024-03-02T13:03:57;15.10;99.90
53274;DHT22;39163;52.696;6.758;2024-03-02T13:06:25;14.90;99.60
53274;DHT22;39163;52.696;6.758;2024-03-02T13:08:55;14.60;98.40
53274;DHT22;39163;52.696;6.758;2024-03-02T13:11:22;14.50;98.50
53274;DHT22;39163;52.696;6.758;2024-03-02T13:13:50;14.60;98.60
53274;DHT22;39163;52.696;6.758;2024-03-02T13:16:18;14.30;98.80
53274;DHT22;39163;52.696;6.758;2024-03-02T13:18:45;14.30;99.10
53274;DHT22;39163;52.696;6.758;2024-03-02T13:21:13;14.30;99.20
53274;DHT22;39163;52.696;6.758;2024-03-02T13:23:40;14.50;98.50
53274;DHT22;39163;52.696;6.758;2024-03-02T13:26:08;14.70;99.50
53274;DHT22;39163;52.696;6.758;2024-03-02T13:28:38;14.70;98.50
53274;DHT22;39163;52.696;6.758;2024-03-02T13:31:05;14.80;98.90
53274;DHT22;39163;52.696;6.758;2024-03-02T13:33:32;14.80;99.40
53274;DHT22;39163;52.696;6.758;2024-03-02T13:35:59;14.80;99.10
53274;DHT22;39163;52.696;6.758;2024-03-02T13:38:27;14.80;98.30
53274;DHT22;39163;52.696;6.758;2024-03-02T13:40:54;14.80;99.30
53274;DHT22;39163;52.696;6.758;2024-03-02T13:43:22;14.70;98.50
53274;DHT22;39163;52.696;6.758;2024-03-02T13:45:50;14.60;99.30
53274;DHT22;39163;52.696;6.758;2024-03-02T13:48:19;14.20;98.90
53274;DHT22;39163;52.696;6.758;2024-03-02T13:50:46;13.90;99.00
53274;DHT22;39163;52.696;6.758;2024-03-02T13:53:13;13.90;99.90
53274;DHT22;39163;52.696;6.758;2024-03-02T13:55:40;13.90;99.90
53274;DHT22;39163;52.696;6.758;2024-03-02T13:58:08;13.80;99.90
53274;DHT22;39163;52.696;6.758;2024-03-02T14:00:37;13.70;99.90
53274;DHT22;39163;52.696;6.758;2024-03-02T14:03:04;13.70;99.90
53274;DHT22;39163;52.696;6.758;2024-03-02T14:05:32;13.60;99.60
53274;DHT22;39163;52.696;6.758;2024-03-02T14:07:59;13.50;99.70
53274;DHT22;39163;52.696;6.758;2024-03-02T14:10:27;13.40;99.90
53274;DHT22;39163;52.696;6.758;2024-03-02T14:12:54;13.40;99.90
53274;DHT22;39163;52.696;6.758;2024-03-02T14:15:22;13.40;99.90
53274;DHT22;39163;52.696;6.758;2024-03-02T14:17:50;13.40;99.90
53274;DHT22;39163;52.696;6.758;2024-03-02T14:20:17;13.50;99.90
53274;DHT22;39163;52.696;6.758;2024-03-02T14:22:48;13.50;99.90
53274;DHT22;39163;52.696;6.758;2024-03-02T14:25:15;13.70;99.90
53274;DHT22;39163;52.696;6.758;2024-03-02T14:27:43;14.00;99.90
53274;DHT22;39163;52.696;6.758;2024-03-02T14:30:11;14.10;99.90
53274;DHT22;39163;52.696;6.758;2024-03-02T14:32:38;14.00;99.90
53274;DHT22;39163;52.696;6.758;2024-03-02T14:35:07;13.80;99.90
53274;DHT22;39163;52.696;6.758;2024-03-02T14:37:37;13.90;99.90
53274;DHT22;39163;52.696;6.758;2024-03-02T14:40:05;14.00;99.90
53274;DHT22;39163;52.696;6.758;2024-03-02T14:42:35;13.90;99.90
53274;DHT22;39163;52.696;6.758;2024-03-02T14:45:02;13.70;99.90
53274;DHT22;39163;52.696;6.758;2024-03-02T14:47:32;13.50;99.90
53274;DHT22;39163;52.696;6.758;2024-03-02T14:50:01;13.50;99.90
53274;DHT22;39163;52.696;6.758;2024-03-02T14:52:33;13.40;99.90
53274;DHT22;39163;52.696;6.758;2024-03-02T14:55:00;13.40;99.90
53274;DHT22;39163;52.696;6.758;2024-03-02T14:57:28;13.40;99.90
53274;DHT22;39163;52.696;6.758;2024-03-02T14:59:55;13.50;99.90
53274;DHT22;39163;52.696;6.758;2024-03-02T15:02:22;13.70;99.90
53274;DHT22;39163;52.696;6.758;2024-03-02T15:04:49;13.80;99.90
53274;DHT22;39163;52.696;6.758;2024-03-02T15:07:16;13.90;99.90
53274;DHT22;39163;52.696;6.758;2024-03-02T15:09:45;13.80;99.90
53274;DHT22;39163;52.696;6.758;2024-03-02T15:12:11;13.80;99.90
53274;DHT22;39163;52.696;6.758;2024-03-02T15:14:40;13.90;99.90
53274;DHT22;39163;52.696;6.758;2024-03-02T15:17:12;14.00;99.90
53274;DHT22;39163;52.696;6.758;2024-03-02T15:19:41;14.10;99.90
53274;DHT22;39163;52.696;6.758;2024-03-02T15:22:08;14.20;99.90
53274;DHT22;39163;52.696;6.758;2024-03-02T15:24:35;14.20;99.90
53274;DHT22;39163;52.696;6.758;2024-03-02T15:27:04;14.20;99.90
53274;DHT22;39163;52.696;6.758;2024-03-02T15:29:33;14.20;99.90
53274;DHT22;39163;52.696;6.758;2024-03-02T15:32:00;14.10;99.90
53274;DHT22;39163;52.696;6.758;2024-03-02T15:34:27;14.10;99.90
53274;DHT22;39163;52.696;6.758;2024-03-02T15:36:53;14.10;99.90
53274;DHT22;39163;52.696;6.758;2024-03-02T15:39:20;14.00;99.90
53274;DHT22;39163;52.696;6.758;2024-03-02T15:41:47;13.90;99.90
53274;DHT22;39163;52.696;6.758;2024-03-02T15:44:16;13.80;99.90
53274;DHT22;39163;52.696;6.758;2024-03-02T15:46:43;13.70;99.90